Terminal Aerodrome Forecast
Issued by NWS

Home | Current Version | Previous Version | Text Only | Print | Product List | Glossary Off
Versions: 1 2 3 4 5 6 7 8 9 10 11 12 13 14 15 16

472
FTUS41 KCLE 191300 AAA
TAFFDY
TAF AMD
KFDY 191352Z 1914/2012 31012KT P6SM BKN030
     FM191500 29012KT P6SM OVC040
     FM200100 31008KT P6SM SKC
     FM200400 30005KT P6SM BKN250=

USA.gov is the U.S. government's official web portal to all federal, state and local government web resources and services.